createdAt,value
2022-12-09T00:03:21.661Z,71.30
2022-12-09T00:08:19.832Z,68.90
2022-12-09T00:13:16.070Z,67.72
2022-12-09T00:18:12.297Z,66.03
2022-12-09T00:23:08.507Z,64.30
2022-12-09T00:28:04.857Z,64.43
2022-12-09T00:33:01.091Z,64.07
2022-12-09T00:37:57.617Z,65.85
2022-12-09T00:42:54.147Z,62.05
2022-12-09T00:47:50.590Z,59.00
2022-12-09T00:52:47.079Z,61.80
2022-12-09T00:57:43.660Z,65.55
2022-12-09T01:02:40.020Z,59.00
2022-12-09T01:07:37.550Z,58.72
2022-12-09T01:12:34.509Z,57.70
2022-12-09T01:17:30.991Z,55.67
2022-12-09T01:22:28.427Z,53.55
2022-12-09T01:27:24.975Z,56.10
2022-12-09T01:32:21.367Z,59.95
2022-12-09T01:37:17.659Z,60.20
2022-12-09T01:42:21.543Z,60.05
2022-12-09T01:47:21.958Z,60.80
2022-12-09T01:52:20.338Z,62.70
2022-12-09T01:57:17.090Z,62.25
2022-12-09T02:02:15.557Z,63.83
2022-12-09T02:07:11.875Z,65.82
2022-12-09T02:12:24.874Z,65.32
2022-12-09T02:22:21.105Z,64.40
2022-12-09T02:27:24.744Z,72.18
2022-12-09T02:32:20.972Z,73.00
2022-12-09T02:37:27.871Z,71.60
2022-12-09T02:42:25.940Z,72.00
2022-12-09T02:47:24.455Z,74.00
2022-12-09T02:52:22.525Z,75.15
2022-12-09T02:57:26.250Z,74.32
2022-12-09T03:02:26.305Z,77.40
2022-12-09T03:07:29.669Z,79.70
2022-12-09T03:12:30.581Z,76.75
2022-12-09T03:17:32.815Z,74.30
2022-12-09T03:22:31.402Z,77.45
2022-12-09T03:27:46.166Z,71.68
2022-12-09T03:32:43.574Z,70.25
2022-12-09T03:37:40.320Z,69.25
2022-12-09T03:42:39.430Z,68.72
2022-12-09T03:47:36.442Z,69.32
2022-12-09T03:52:37.328Z,65.15
2022-12-09T03:57:36.303Z,66.63
2022-12-09T04:02:33.060Z,66.18
2022-12-09T04:07:29.598Z,63.50
2022-12-09T04:12:25.985Z,62.83
2022-12-09T04:17:22.644Z,59.30
2022-12-09T04:22:18.921Z,61.85
2022-12-09T04:27:15.210Z,59.55
2022-12-09T04:32:11.785Z,62.85
2022-12-09T04:37:08.698Z,61.15
2022-12-09T04:42:05.134Z,62.10
2022-12-09T04:47:01.460Z,64.38
2022-12-09T04:51:57.755Z,64.70
2022-12-09T04:56:54.152Z,67.30
2022-12-09T05:01:50.459Z,68.25
2022-12-09T05:06:47.271Z,66.50
2022-12-09T05:11:43.783Z,70.05
2022-12-09T05:16:40.641Z,72.63
2022-12-09T05:21:37.513Z,76.80
2022-12-09T05:26:33.957Z,76.53
2022-12-09T05:31:30.606Z,80.43
2022-12-09T05:36:27.813Z,83.70
2022-12-09T05:41:24.381Z,85.72
2022-12-09T05:46:21.037Z,90.63
2022-12-09T05:51:24.841Z,92.55
2022-12-09T05:56:22.408Z,88.13
2022-12-09T06:01:19.300Z,94.50
2022-12-09T06:06:16.930Z,93.38
2022-12-09T06:11:14.664Z,92.15
2022-12-09T06:16:12.138Z,89.25
2022-12-09T06:21:09.932Z,90.82
2022-12-09T06:26:07.003Z,90.35
2022-12-09T06:31:03.647Z,89.43
2022-12-09T06:36:01.365Z,86.93
2022-12-09T06:40:57.774Z,84.47
2022-12-09T06:45:54.204Z,84.15
2022-12-09T06:50:50.918Z,81.53
2022-12-09T06:55:48.932Z,79.80
2022-12-09T07:00:45.321Z,76.25
2022-12-09T07:05:42.480Z,76.47
2022-12-09T07:10:40.031Z,79.50
2022-12-09T07:15:36.486Z,79.43
2022-12-09T07:20:32.767Z,72.55
2022-12-09T07:25:29.070Z,75.38
2022-12-09T07:30:25.646Z,73.72
2022-12-09T07:35:22.388Z,71.25
2022-12-09T07:40:19.093Z,73.03
2022-12-09T07:45:15.770Z,72.38
2022-12-09T07:50:12.400Z,69.60
2022-12-09T07:55:09.657Z,70.88
2022-12-09T08:00:06.907Z,71.18
2022-12-09T08:05:04.060Z,68.07
2022-12-09T08:10:01.083Z,65.50
2022-12-09T08:14:57.848Z,67.15
2022-12-09T08:19:54.821Z,63.97
2022-12-09T08:24:51.729Z,65.38
2022-12-09T08:29:48.196Z,65.38
2022-12-09T08:34:45.849Z,65.10
2022-12-09T08:39:42.523Z,63.33
2022-12-09T08:44:39.510Z,61.42
2022-12-09T08:49:35.959Z,60.83
2022-12-09T08:54:32.790Z,61.25
2022-12-09T08:59:29.487Z,60.95
2022-12-09T09:04:26.189Z,60.70
2022-12-09T09:09:23.458Z,60.22
2022-12-09T09:14:20.135Z,60.28
2022-12-09T09:19:19.514Z,61.20
2022-12-09T09:24:18.115Z,64.63
2022-12-09T09:29:15.931Z,63.27
2022-12-09T09:34:12.537Z,61.67
2022-12-09T09:39:09.925Z,65.38
2022-12-09T09:44:27.245Z,60.75
2022-12-09T09:49:40.019Z,60.35
2022-12-09T09:54:37.096Z,57.13
2022-12-09T09:59:39.282Z,50.58
2022-12-09T10:04:56.431Z,50.83
2022-12-09T10:09:52.958Z,49.63
2022-12-09T10:14:50.428Z,49.75
2022-12-09T10:19:48.891Z,53.15
2022-12-09T10:24:47.725Z,52.97
2022-12-09T10:29:59.206Z,55.10
2022-12-09T10:34:56.255Z,56.45
2022-12-09T10:40:00.033Z,54.00
2022-12-09T10:45:07.167Z,54.42
2022-12-09T10:50:04.992Z,56.95
2022-12-09T10:55:02.496Z,59.97
2022-12-09T11:00:00.873Z,60.78
2022-12-09T11:05:17.204Z,59.35
2022-12-09T11:10:19.937Z,64.78
2022-12-09T11:15:35.336Z,67.15
2022-12-09T11:20:33.068Z,69.93
2022-12-09T11:25:31.802Z,73.10
2022-12-09T11:30:31.795Z,71.35
2022-12-09T11:35:33.251Z,65.32
2022-12-09T11:40:31.279Z,63.97
2022-12-09T11:45:31.375Z,47.92
2022-12-09T11:50:32.403Z,44.70
2022-12-09T11:55:28.943Z,39.47
2022-12-09T12:00:27.074Z,35.95
2022-12-09T12:05:36.182Z,33.38
2022-12-09T12:10:37.226Z,34.15
2022-12-09T12:15:52.410Z,36.90
2022-12-09T12:21:07.256Z,31.95
2022-12-09T12:26:11.629Z,32.75
2022-12-09T12:31:26.669Z,31.80
2022-12-09T12:36:22.929Z,28.55
2022-12-09T12:41:31.334Z,24.15
2022-12-09T12:46:30.392Z,20.90
2022-12-09T12:51:34.370Z,23.48
2022-12-09T12:56:32.508Z,21.67
2022-12-09T13:01:31.110Z,21.50
2022-12-09T13:06:48.085Z,41.47
2022-12-09T13:11:50.599Z,20.42
2022-12-09T13:16:47.629Z,21.63
2022-12-09T13:21:45.190Z,20.48
2022-12-09T13:26:41.459Z,22.02
2022-12-09T13:31:41.897Z,22.42
2022-12-09T13:36:41.140Z,24.42
2022-12-09T13:41:58.191Z,25.58
2022-12-09T13:46:54.371Z,24.25
2022-12-09T13:51:52.003Z,24.13
2022-12-09T13:57:04.967Z,23.00
2022-12-09T14:02:09.030Z,23.27
2022-12-09T14:07:14.390Z,25.15
2022-12-09T14:12:11.613Z,26.50
2022-12-09T14:17:37.298Z,24.70
2022-12-09T14:22:34.444Z,25.98
2022-12-09T14:27:31.681Z,25.17
2022-12-09T14:32:29.784Z,25.40
2022-12-09T14:37:35.517Z,28.27
2022-12-09T14:42:50.597Z,26.48
2022-12-09T14:47:48.280Z,26.25
2022-12-09T14:52:52.804Z,26.73
2022-12-09T14:57:49.689Z,27.17
2022-12-09T15:03:23.171Z,26.98
2022-12-09T15:08:06.941Z,27.58
2022-12-09T15:13:03.478Z,27.45
2022-12-09T15:18:05.212Z,28.02
2022-12-09T15:23:03.380Z,27.50
2022-12-09T15:28:01.125Z,29.75
2022-12-09T15:32:57.537Z,29.60
2022-12-09T15:37:55.725Z,31.77
2022-12-09T15:42:53.675Z,31.65
2022-12-09T15:47:52.722Z,32.33
2022-12-09T15:52:51.039Z,31.05
2022-12-09T15:57:49.728Z,33.00
2022-12-09T16:02:47.484Z,32.83
2022-12-09T16:07:57.799Z,34.80
2022-12-09T16:13:04.748Z,37.33
2022-12-09T16:18:02.145Z,36.65
2022-12-09T16:22:59.058Z,39.67
2022-12-09T16:28:00.033Z,42.35
2022-12-09T16:32:57.430Z,43.10
2022-12-09T16:37:56.630Z,42.90
2022-12-09T16:42:54.033Z,42.85
2022-12-09T16:47:54.570Z,46.13
2022-12-09T16:52:50.757Z,45.30
2022-12-09T16:57:47.251Z,47.85
2022-12-09T17:02:46.663Z,48.15
2022-12-09T17:07:43.014Z,50.72
2022-12-09T17:12:39.363Z,51.50
2022-12-09T17:17:35.729Z,54.42
2022-12-09T17:22:32.212Z,56.13
2022-12-09T17:27:28.541Z,58.03
2022-12-09T17:32:25.246Z,56.17
2022-12-09T17:37:21.500Z,55.80
2022-12-09T17:42:17.743Z,55.20
2022-12-09T17:47:13.979Z,59.47
2022-12-09T17:52:10.294Z,58.25
2022-12-09T17:57:06.647Z,57.80
2022-12-09T18:02:04.541Z,59.42
2022-12-09T18:07:00.838Z,57.67
2022-12-09T18:11:57.019Z,59.83
2022-12-09T18:16:53.246Z,63.00
2022-12-09T18:21:49.681Z,62.90
2022-12-09T18:26:45.985Z,65.68
2022-12-09T18:31:45.455Z,67.03
2022-12-09T18:36:41.778Z,66.35
2022-12-09T18:41:38.026Z,61.75
2022-12-09T18:46:36.473Z,64.80
2022-12-09T18:51:32.990Z,64.95
2022-12-09T18:56:29.540Z,62.72
2022-12-09T19:01:27.821Z,60.95
2022-12-09T19:06:27.192Z,65.68
2022-12-09T19:11:26.212Z,60.92
2022-12-09T19:16:22.814Z,58.13
2022-12-09T19:21:19.741Z,58.88
2022-12-09T19:26:19.759Z,62.22
2022-12-09T19:31:17.304Z,65.05
2022-12-09T19:36:13.622Z,65.63
2022-12-09T19:41:10.422Z,65.75
2022-12-09T19:46:07.618Z,62.65
2022-12-09T19:51:04.938Z,63.80
2022-12-09T19:56:01.908Z,58.88
2022-12-09T20:00:58.244Z,59.75
2022-12-09T20:05:55.867Z,59.58
2022-12-09T20:10:52.105Z,63.25
2022-12-09T20:15:48.303Z,63.78
2022-12-09T20:20:48.862Z,63.22
2022-12-09T20:25:45.469Z,58.67
2022-12-09T20:30:41.770Z,59.42
2022-12-09T20:35:38.066Z,58.85
2022-12-09T20:40:39.110Z,55.67
2022-12-09T20:45:38.457Z,56.03
2022-12-09T20:50:38.583Z,54.17
2022-12-09T20:55:35.165Z,50.63
2022-12-09T21:00:31.799Z,51.47
2022-12-09T21:05:28.013Z,52.28
2022-12-09T21:10:24.242Z,55.47
2022-12-09T21:15:20.506Z,57.15
2022-12-09T21:20:17.249Z,54.22
2022-12-09T21:25:13.519Z,57.38
2022-12-09T21:30:10.184Z,50.83
2022-12-09T21:35:06.865Z,51.50
2022-12-09T21:40:04.265Z,51.30
2022-12-09T21:45:00.598Z,52.88
2022-12-09T21:49:56.974Z,51.67
2022-12-09T21:54:55.455Z,52.72
2022-12-09T21:59:53.169Z,53.78
2022-12-09T22:04:49.351Z,52.00
2022-12-09T22:09:45.546Z,50.38
2022-12-09T22:14:41.833Z,47.92
2022-12-09T22:19:38.353Z,51.47
2022-12-09T22:24:34.664Z,51.22
2022-12-09T22:29:30.905Z,46.78
2022-12-09T22:34:27.094Z,50.20
2022-12-09T22:39:23.799Z,47.97
2022-12-09T22:44:20.141Z,49.35
2022-12-09T22:49:16.497Z,47.40
2022-12-09T22:54:13.056Z,47.75
2022-12-09T22:59:09.342Z,47.45
2022-12-09T23:04:06.650Z,45.65
2022-12-09T23:09:03.446Z,48.95
2022-12-09T23:13:59.900Z,46.50
2022-12-09T23:18:57.494Z,43.17
2022-12-09T23:23:58.058Z,45.22
2022-12-09T23:28:55.271Z,44.30
2022-12-09T23:33:52.187Z,45.97
2022-12-09T23:38:48.821Z,46.72
2022-12-09T23:43:45.828Z,44.70
2022-12-09T23:48:42.318Z,44.92
2022-12-09T23:53:39.281Z,41.22
2022-12-09T23:58:35.485Z,42.92
